createdAt,value
2019-04-07T00:02:19.945Z,44.10
2019-04-07T00:04:49.586Z,43.33
2019-04-07T00:07:19.597Z,46.17
2019-04-07T00:09:49.366Z,42.30
2019-04-07T00:12:18.883Z,47.70
2019-04-07T00:14:48.687Z,44.13
2019-04-07T00:17:18.135Z,47.77
2019-04-07T00:19:48.074Z,44.30
2019-04-07T00:22:18.501Z,41.60
2019-04-07T00:24:48.019Z,43.77
2019-04-07T00:27:17.923Z,42.47
2019-04-07T00:29:47.382Z,51.03
2019-04-07T00:32:16.919Z,40.83
2019-04-07T00:34:46.822Z,41.73
2019-04-07T00:37:17.121Z,39.57
2019-04-07T00:39:46.841Z,50.23
2019-04-07T00:42:16.263Z,41.30
2019-04-07T00:44:45.720Z,37.63
2019-04-07T00:47:17.510Z,48.87
2019-04-07T00:49:47.538Z,43.20
2019-04-07T00:52:19.489Z,52.90
2019-04-07T00:54:49.027Z,43.00
2019-04-07T00:57:18.491Z,41.50
2019-04-07T00:59:48.834Z,40.13
2019-04-07T01:02:20.356Z,42.23
2019-04-07T01:04:49.926Z,42.60
2019-04-07T01:07:19.614Z,39.10
2019-04-07T01:09:49.594Z,42.37
2019-04-07T01:12:19.396Z,39.00
2019-04-07T01:14:49.026Z,38.20
2019-04-07T01:17:19.203Z,44.93
2019-04-07T01:19:48.684Z,44.70
2019-04-07T01:22:18.585Z,45.97
2019-04-07T01:24:48.719Z,48.57
2019-04-07T01:27:18.477Z,45.63
2019-04-07T01:29:49.083Z,43.77
2019-04-07T01:32:19.194Z,40.30
2019-04-07T01:34:49.275Z,41.03
2019-04-07T01:37:18.876Z,51.03
2019-04-07T01:39:49.216Z,44.30
2019-04-07T01:42:49.979Z,42.80
2019-04-07T01:45:31.910Z,45.37
2019-04-07T01:48:26.849Z,42.97
2019-04-07T01:51:04.496Z,41.17
2019-04-07T01:54:05.334Z,53.93
2019-04-07T01:57:09.251Z,44.23
2019-04-07T02:00:03.529Z,44.80
2019-04-07T02:02:52.062Z,49.03
2019-04-07T02:05:31.920Z,46.35
2019-04-07T02:08:29.792Z,43.92
2019-04-07T02:11:22.079Z,49.33
2019-04-07T02:14:16.525Z,45.70
2019-04-07T02:17:10.946Z,43.58
2019-04-07T02:20:02.649Z,45.70
2019-04-07T02:22:49.774Z,45.33
2019-04-07T02:25:38.436Z,48.78
2019-04-07T02:28:30.770Z,50.73
2019-04-07T02:31:25.245Z,46.90
2019-04-07T02:34:13.518Z,48.60
2019-04-07T02:36:53.943Z,50.58
2019-04-07T02:39:32.998Z,55.17
2019-04-07T02:42:13.134Z,49.35
2019-04-07T02:45:01.311Z,45.75
2019-04-07T02:47:45.469Z,50.07
2019-04-07T02:50:34.880Z,47.13
2019-04-07T02:53:13.561Z,45.40
2019-04-07T02:56:10.970Z,47.67
2019-04-07T02:58:55.222Z,48.98
2019-04-07T03:01:50.035Z,44.35
2019-04-07T03:04:38.355Z,46.77
2019-04-07T03:07:32.851Z,45.27
2019-04-07T03:10:31.299Z,44.67
2019-04-07T03:13:18.650Z,43.42
2019-04-07T03:16:10.578Z,51.83
2019-04-07T03:19:00.183Z,49.70
2019-04-07T03:21:55.882Z,50.95
2019-04-07T03:24:42.362Z,52.62
2019-04-07T03:27:33.900Z,49.45
2019-04-07T03:30:27.942Z,51.45
2019-04-07T03:33:16.529Z,54.93
2019-04-07T03:35:56.861Z,54.05
2019-04-07T03:38:43.385Z,54.33
2019-04-07T03:41:44.282Z,58.15
2019-04-07T03:44:38.450Z,65.47
2019-04-07T03:47:18.617Z,58.93
2019-04-07T03:50:03.199Z,54.80
2019-04-07T03:52:51.872Z,57.62
2019-04-07T03:55:32.484Z,59.20
2019-04-07T03:58:30.936Z,58.63
2019-04-07T04:01:28.502Z,55.40
2019-04-07T04:04:15.737Z,49.55
2019-04-07T04:07:28.238Z,51.30
2019-04-07T04:10:12.066Z,48.73
2019-04-07T04:13:07.058Z,53.63
2019-04-07T04:15:54.257Z,50.25
2019-04-07T04:18:23.766Z,56.13
2019-04-07T04:20:54.222Z,54.85
2019-04-07T04:23:24.295Z,51.73
2019-04-07T04:25:54.317Z,46.40
2019-04-07T04:28:23.825Z,54.65
2019-04-07T04:30:53.723Z,48.97
2019-04-07T04:33:23.621Z,46.02
2019-04-07T04:35:53.844Z,49.47
2019-04-07T04:38:24.231Z,50.33
2019-04-07T04:40:53.909Z,49.23
2019-04-07T04:43:23.495Z,44.90
2019-04-07T04:45:53.474Z,52.60
2019-04-07T04:48:23.779Z,49.15
2019-04-07T04:50:53.404Z,45.15
2019-04-07T04:53:24.073Z,52.15
2019-04-07T04:55:53.790Z,45.03
2019-04-07T04:58:23.324Z,49.30
2019-04-07T05:00:53.055Z,50.85
2019-04-07T05:03:22.564Z,49.75
2019-04-07T05:05:52.385Z,48.70
2019-04-07T05:08:22.012Z,47.67
2019-04-07T05:10:51.968Z,47.83
2019-04-07T05:13:21.624Z,47.80
2019-04-07T05:15:51.310Z,45.73
2019-04-07T05:18:22.229Z,47.08
2019-04-07T05:20:55.306Z,42.80
2019-04-07T05:23:25.158Z,42.33
2019-04-07T05:25:55.716Z,40.95
2019-04-07T05:28:25.475Z,38.45
2019-04-07T05:30:54.906Z,40.12
2019-04-07T05:33:25.373Z,41.02
2019-04-07T05:35:55.717Z,39.05
2019-04-07T05:38:25.613Z,38.73
2019-04-07T05:40:55.377Z,39.80
2019-04-07T05:43:25.188Z,43.00
2019-04-07T05:45:55.464Z,36.98
2019-04-07T05:48:25.036Z,38.50
2019-04-07T05:50:56.157Z,37.30
2019-04-07T05:53:25.633Z,34.15
2019-04-07T05:55:56.085Z,36.40
2019-04-07T05:58:25.752Z,40.10
2019-04-07T06:00:55.353Z,36.08
2019-04-07T06:03:25.383Z,37.50
2019-04-07T06:05:55.023Z,37.00
2019-04-07T06:08:33.740Z,36.95
2019-04-07T06:11:00.362Z,37.10
2019-04-07T06:13:27.029Z,42.53
2019-04-07T06:15:56.576Z,36.30
2019-04-07T06:18:26.297Z,38.57
2019-04-07T06:20:56.427Z,37.20
2019-04-07T06:23:29.474Z,41.00
2019-04-07T06:25:59.132Z,47.50
2019-04-07T06:28:28.332Z,41.53
2019-04-07T06:31:00.831Z,44.93
2019-04-07T06:33:29.854Z,41.33
2019-04-07T06:36:00.446Z,47.70
2019-04-07T06:38:34.158Z,45.07
2019-04-07T06:41:02.108Z,43.23
2019-04-07T06:43:31.415Z,46.13
2019-04-07T06:46:16.337Z,40.43
2019-04-07T06:49:02.669Z,41.13
2019-04-07T06:51:51.173Z,48.17
2019-04-07T06:54:43.984Z,51.85
2019-04-07T06:57:24.459Z,53.65
2019-04-07T07:00:12.681Z,51.90
2019-04-07T07:02:59.640Z,50.83
2019-04-07T07:05:41.111Z,53.92
2019-04-07T07:08:23.574Z,51.63
2019-04-07T07:11:28.881Z,53.97
2019-04-07T07:14:14.034Z,54.90
2019-04-07T07:17:01.838Z,55.05
2019-04-07T07:19:46.110Z,55.05
2019-04-07T07:22:22.066Z,52.33
2019-04-07T07:24:56.394Z,56.05
2019-04-07T07:27:21.903Z,57.35
2019-04-07T07:29:53.598Z,55.13
2019-04-07T07:32:21.668Z,56.20
2019-04-07T07:34:50.836Z,52.05
2019-04-07T07:37:20.572Z,62.00
2019-04-07T07:39:49.791Z,51.80
2019-04-07T07:42:21.483Z,55.03
2019-04-07T07:44:49.398Z,51.63
2019-04-07T07:47:21.425Z,54.88
2019-04-07T07:49:49.751Z,60.15
2019-04-07T07:52:21.020Z,48.08
2019-04-07T07:54:51.867Z,49.27
2019-04-07T07:57:22.792Z,43.45
2019-04-07T07:59:52.055Z,43.13
2019-04-07T08:02:21.972Z,39.23
2019-04-07T08:04:57.339Z,35.15
2019-04-07T08:07:25.953Z,37.25
2019-04-07T08:09:56.835Z,36.80
2019-04-07T08:12:27.225Z,36.83
2019-04-07T08:14:58.540Z,37.93
2019-04-07T08:17:33.173Z,36.17
2019-04-07T08:20:02.372Z,31.50
2019-04-07T08:22:39.120Z,32.00
2019-04-07T08:25:03.143Z,23.43
2019-04-07T08:27:33.142Z,24.07
2019-04-07T08:30:02.717Z,24.98
2019-04-07T08:32:33.416Z,23.52
2019-04-07T08:35:05.603Z,20.15
2019-04-07T08:37:35.214Z,22.67
2019-04-07T08:40:07.385Z,20.90
2019-04-07T08:42:36.936Z,19.10
2019-04-07T08:45:08.149Z,21.33
2019-04-07T08:47:38.110Z,21.33
2019-04-07T08:50:08.464Z,19.48
2019-04-07T08:52:40.826Z,18.32
2019-04-07T08:55:09.351Z,20.12
2019-04-07T08:57:40.083Z,16.52
2019-04-07T09:00:14.923Z,17.15
2019-04-07T09:02:44.716Z,19.82
2019-04-07T09:05:20.637Z,17.25
2019-04-07T09:07:47.839Z,24.95
2019-04-07T09:10:39.388Z,20.35
2019-04-07T09:13:09.540Z,18.50
2019-04-07T09:15:48.844Z,20.27
2019-04-07T09:18:23.373Z,16.65
2019-04-07T09:21:15.619Z,17.40
2019-04-07T09:24:02.597Z,14.90
2019-04-07T09:26:40.589Z,14.45
2019-04-07T09:29:19.069Z,16.25
2019-04-07T09:32:13.383Z,16.90
2019-04-07T09:35:02.057Z,17.75
2019-04-07T09:38:03.168Z,16.77
2019-04-07T09:40:40.513Z,17.82
2019-04-07T09:43:26.291Z,18.35
2019-04-07T09:46:13.654Z,21.55
2019-04-07T09:49:11.349Z,16.93
2019-04-07T09:51:57.786Z,17.80
2019-04-07T09:54:46.197Z,21.37
2019-04-07T09:57:40.817Z,18.50
2019-04-07T10:00:33.785Z,16.42
2019-04-07T10:03:24.286Z,17.57
2019-04-07T10:06:09.893Z,15.60
2019-04-07T10:08:52.259Z,15.95
2019-04-07T10:11:37.388Z,16.65
2019-04-07T10:14:29.545Z,16.73
2019-04-07T10:17:26.631Z,15.80
2019-04-07T10:20:09.006Z,14.85
2019-04-07T10:22:44.479Z,17.00
2019-04-07T10:25:28.005Z,17.67
2019-04-07T10:28:15.559Z,17.92
2019-04-07T10:30:52.928Z,16.50
2019-04-07T10:33:50.584Z,14.85
2019-04-07T10:36:39.730Z,15.60
2019-04-07T10:39:14.352Z,15.10
2019-04-07T10:42:06.667Z,18.50
2019-04-07T10:44:41.220Z,14.18
2019-04-07T10:47:29.146Z,20.57
2019-04-07T10:50:11.166Z,18.90
2019-04-07T10:53:03.739Z,16.65
2019-04-07T10:55:58.392Z,13.60
2019-04-07T10:58:34.820Z,13.85
2019-04-07T11:01:37.879Z,14.93
2019-04-07T11:04:27.257Z,17.20
2019-04-07T11:07:13.022Z,14.93
2019-04-07T11:09:54.652Z,15.18
2019-04-07T11:12:35.722Z,18.50
2019-04-07T11:15:22.972Z,14.00
2019-04-07T11:18:29.793Z,17.00
2019-04-07T11:21:26.741Z,17.53
2019-04-07T11:24:22.054Z,15.25
2019-04-07T11:27:15.167Z,14.85
2019-04-07T11:29:48.624Z,15.55
2019-04-07T11:32:37.371Z,15.05
2019-04-07T11:35:21.120Z,12.53
2019-04-07T11:38:19.803Z,16.90
2019-04-07T11:41:06.691Z,17.67
2019-04-07T11:44:02.047Z,19.40
2019-04-07T11:46:57.520Z,18.30
2019-04-07T11:49:51.414Z,17.82
2019-04-07T11:52:27.908Z,16.25
2019-04-07T11:55:14.881Z,16.42
2019-04-07T11:58:06.360Z,17.57
2019-04-07T12:00:47.452Z,21.97
2019-04-07T12:03:28.922Z,19.75
2019-04-07T12:06:29.753Z,15.25
2019-04-07T12:09:27.188Z,19.75
2019-04-07T12:12:07.909Z,18.20
2019-04-07T12:14:54.649Z,15.90
2019-04-07T12:17:33.001Z,16.57
2019-04-07T12:20:26.854Z,14.85
2019-04-07T12:23:04.810Z,17.92
2019-04-07T12:25:56.692Z,14.78
2019-04-07T12:28:47.609Z,13.60
2019-04-07T12:31:40.581Z,15.05
2019-04-07T12:34:35.489Z,17.45
2019-04-07T12:37:17.589Z,17.57
2019-04-07T12:40:24.201Z,14.63
2019-04-07T12:43:13.193Z,16.40
2019-04-07T12:45:55.760Z,17.07
2019-04-07T12:48:50.088Z,15.70
2019-04-07T12:51:28.839Z,20.15
2019-04-07T12:54:33.088Z,15.08
2019-04-07T12:57:39.910Z,14.95
2019-04-07T13:00:54.474Z,12.70
2019-04-07T13:03:30.059Z,44.63
2019-04-07T13:06:18.456Z,18.67
2019-04-07T13:09:07.976Z,13.08
2019-04-07T13:11:47.008Z,16.20
2019-04-07T13:14:35.266Z,18.90
2019-04-07T13:17:38.100Z,15.48
2019-04-07T13:20:19.705Z,14.70
2019-04-07T13:22:58.848Z,16.52
2019-04-07T13:25:45.982Z,18.57
2019-04-07T13:28:31.617Z,15.17
2019-04-07T13:31:39.595Z,17.27
2019-04-07T13:34:43.120Z,17.20
2019-04-07T13:37:23.364Z,15.70
2019-04-07T13:40:24.196Z,13.73
2019-04-07T13:43:10.167Z,14.83
2019-04-07T13:45:53.909Z,17.15
2019-04-07T13:48:59.949Z,17.48
2019-04-07T13:51:59.609Z,15.38
2019-04-07T13:54:46.131Z,15.85
2019-04-07T13:57:34.819Z,15.45
2019-04-07T14:00:42.948Z,14.05
2019-04-07T14:03:30.211Z,15.28
2019-04-07T14:06:22.193Z,19.62
2019-04-07T14:09:20.185Z,18.33
2019-04-07T14:12:05.456Z,16.60
2019-04-07T14:14:47.167Z,13.32
2019-04-07T14:17:27.363Z,18.87
2019-04-07T14:20:06.074Z,18.30
2019-04-07T14:22:59.742Z,16.48
2019-04-07T14:25:46.791Z,14.20
2019-04-07T14:28:32.137Z,14.90
2019-04-07T14:31:11.207Z,16.35
2019-04-07T14:33:54.547Z,12.25
2019-04-07T14:36:51.425Z,16.07
2019-04-07T14:39:48.817Z,16.05
2019-04-07T14:42:42.861Z,18.70
2019-04-07T14:45:34.071Z,23.15
2019-04-07T14:48:09.782Z,16.85
2019-04-07T14:50:50.955Z,23.93
2019-04-07T14:53:30.505Z,17.73
2019-04-07T14:56:34.144Z,37.28
2019-04-07T14:59:27.659Z,22.55
2019-04-07T15:02:00.556Z,20.35
2019-04-07T15:04:48.269Z,19.80
2019-04-07T15:07:42.288Z,16.37
2019-04-07T15:10:16.938Z,23.25
2019-04-07T15:13:05.343Z,17.93
2019-04-07T15:15:35.683Z,17.48
2019-04-07T15:18:05.922Z,19.27
2019-04-07T15:20:35.083Z,17.55
2019-04-07T15:23:05.469Z,18.77
2019-04-07T15:25:35.494Z,16.23
2019-04-07T15:28:05.155Z,16.93
2019-04-07T15:30:34.664Z,19.73
2019-04-07T15:33:06.074Z,21.47
2019-04-07T15:35:38.508Z,23.57
2019-04-07T15:38:08.771Z,19.32
2019-04-07T15:40:39.700Z,18.17
2019-04-07T15:43:10.932Z,19.12
2019-04-07T15:45:39.719Z,14.63
2019-04-07T15:48:10.453Z,20.37
2019-04-07T15:50:39.885Z,20.48
2019-04-07T15:53:13.440Z,21.62
2019-04-07T15:55:49.697Z,18.77
2019-04-07T15:58:13.381Z,17.17
2019-04-07T16:00:44.184Z,27.82
2019-04-07T16:03:15.759Z,23.20
2019-04-07T16:05:46.512Z,18.67
2019-04-07T16:08:16.170Z,18.20
2019-04-07T16:10:46.671Z,19.60
2019-04-07T16:13:17.331Z,19.17
2019-04-07T16:15:50.927Z,17.20
2019-04-07T16:18:18.874Z,16.60
2019-04-07T16:20:49.564Z,18.73
2019-04-07T16:23:19.542Z,17.87
2019-04-07T16:25:49.299Z,26.13
2019-04-07T16:28:18.765Z,23.25
2019-04-07T16:30:51.451Z,35.58
2019-04-07T16:33:19.498Z,28.30
2019-04-07T16:35:54.010Z,28.00
2019-04-07T16:38:20.638Z,89.85
2019-04-07T16:40:50.232Z,56.00
2019-04-07T16:43:20.186Z,27.13
2019-04-07T16:45:50.641Z,22.98
2019-04-07T16:48:20.862Z,30.88
2019-04-07T16:50:53.935Z,133.00
2019-04-07T16:53:21.821Z,40.87
2019-04-07T16:55:54.293Z,33.85
2019-04-07T16:58:24.443Z,29.50
2019-04-07T17:00:54.809Z,30.23
2019-04-07T17:03:24.492Z,45.90
2019-04-07T17:05:57.356Z,14.83
2019-04-07T17:08:26.700Z,24.03
2019-04-07T17:10:56.864Z,18.82
2019-04-07T17:13:33.924Z,19.07
2019-04-07T17:15:57.521Z,24.63
2019-04-07T17:18:43.269Z,21.95
2019-04-07T17:21:20.843Z,22.77
2019-04-07T17:23:55.387Z,21.15
2019-04-07T17:26:24.148Z,25.52
2019-04-07T17:28:56.752Z,24.67
2019-04-07T17:31:28.088Z,27.93
2019-04-07T17:33:56.810Z,26.95
2019-04-07T17:36:26.311Z,24.85
2019-04-07T17:39:14.715Z,31.30
2019-04-07T17:41:48.096Z,32.20
2019-04-07T17:44:41.380Z,43.23
2019-04-07T17:47:43.185Z,60.35
2019-04-07T17:50:22.141Z,49.27
2019-04-07T17:53:12.903Z,49.63
2019-04-07T17:56:02.151Z,54.67
2019-04-07T17:58:38.416Z,58.42
2019-04-07T18:01:30.374Z,65.07
2019-04-07T18:04:13.951Z,64.07
2019-04-07T18:07:03.627Z,66.92
2019-04-07T18:09:45.723Z,65.87
2019-04-07T18:12:34.481Z,63.43
2019-04-07T18:15:23.179Z,64.77
2019-04-07T18:18:12.197Z,66.20
2019-04-07T18:20:57.135Z,62.05
2019-04-07T18:23:45.681Z,63.58
2019-04-07T18:26:25.102Z,67.70
2019-04-07T18:29:07.992Z,73.22
2019-04-07T18:31:48.918Z,63.73
2019-04-07T18:34:36.613Z,65.83
2019-04-07T18:37:25.795Z,67.17
2019-04-07T18:40:26.495Z,170.90
2019-04-07T18:43:12.831Z,88.30
2019-04-07T18:46:08.458Z,83.90
2019-04-07T18:49:10.339Z,82.85
2019-04-07T18:52:13.757Z,85.00
2019-04-07T18:55:05.750Z,86.00
2019-04-07T18:57:51.882Z,81.80
2019-04-07T19:00:39.272Z,79.27
2019-04-07T19:03:14.431Z,77.78
2019-04-07T19:06:16.668Z,69.70
2019-04-07T19:08:57.473Z,70.20
2019-04-07T19:11:42.777Z,75.55
2019-04-07T19:14:38.024Z,74.85
2019-04-07T19:17:21.715Z,78.05
2019-04-07T19:20:15.058Z,94.03
2019-04-07T19:22:56.006Z,98.33
2019-04-07T19:25:48.747Z,112.80
2019-04-07T19:28:20.255Z,99.65
2019-04-07T19:31:21.598Z,104.60
2019-04-07T19:33:59.835Z,117.65
2019-04-07T19:36:48.665Z,142.13
2019-04-07T19:39:40.555Z,126.70
2019-04-07T19:42:39.125Z,134.67
2019-04-07T19:45:31.780Z,137.37
2019-04-07T19:48:19.049Z,151.97
2019-04-07T19:51:06.883Z,151.12
2019-04-07T19:53:44.231Z,147.47
2019-04-07T19:56:31.440Z,147.85
2019-04-07T19:59:19.558Z,155.10
2019-04-07T20:02:03.586Z,139.50
2019-04-07T20:04:53.491Z,195.10
2019-04-07T20:08:02.590Z,158.42
2019-04-07T20:10:49.952Z,104.87
2019-04-07T20:13:40.435Z,117.57
2019-04-07T20:16:17.425Z,116.80
2019-04-07T20:19:04.849Z,120.80
2019-04-07T20:21:55.822Z,118.80
2019-04-07T20:24:38.050Z,148.78
2019-04-07T20:27:29.433Z,170.22
2019-04-07T20:30:21.226Z,179.60
2019-04-07T20:33:09.891Z,194.30
2019-04-07T20:35:55.488Z,182.97
2019-04-07T20:38:37.952Z,171.72
2019-04-07T20:41:38.327Z,175.90
2019-04-07T20:44:15.995Z,174.02
2019-04-07T20:47:07.895Z,173.82
2019-04-07T20:50:02.597Z,157.07
2019-04-07T20:52:40.476Z,159.52
2019-04-07T20:55:17.797Z,148.67
2019-04-07T20:58:15.204Z,151.25
2019-04-07T21:00:58.667Z,152.22
2019-04-07T21:03:45.049Z,149.10
2019-04-07T21:06:27.556Z,147.78
2019-04-07T21:09:19.487Z,158.63
2019-04-07T21:12:00.881Z,150.38
2019-04-07T21:14:49.367Z,153.05
2019-04-07T21:17:40.986Z,130.33
2019-04-07T21:20:18.628Z,141.20
2019-04-07T21:22:57.794Z,149.97
2019-04-07T21:25:47.358Z,142.03
2019-04-07T21:28:35.202Z,139.32
2019-04-07T21:31:22.931Z,150.78
2019-04-07T21:34:12.366Z,137.88
2019-04-07T21:37:13.293Z,138.22
2019-04-07T21:40:06.304Z,143.37
2019-04-07T21:42:56.245Z,158.32
2019-04-07T21:45:43.666Z,166.53
2019-04-07T21:48:32.083Z,163.28
2019-04-07T21:51:23.675Z,200.57
2019-04-07T21:54:11.997Z,170.38
2019-04-07T21:57:02.287Z,181.75
2019-04-07T21:59:40.458Z,167.25
2019-04-07T22:02:33.390Z,184.10
2019-04-07T22:05:12.045Z,188.80
2019-04-07T22:08:03.676Z,167.07
2019-04-07T22:10:30.779Z,184.43
2019-04-07T22:13:04.112Z,170.83
2019-04-07T22:15:45.047Z,171.98
2019-04-07T22:18:07.529Z,178.32
2019-04-07T22:20:34.910Z,186.30
2019-04-07T22:23:08.240Z,184.52
2019-04-07T22:25:46.162Z,192.85
2019-04-07T22:28:15.779Z,198.82
2019-04-07T22:30:45.245Z,202.93
2019-04-07T22:33:15.839Z,194.82
2019-04-07T22:35:45.390Z,184.67
2019-04-07T22:38:15.045Z,181.03
2019-04-07T22:40:45.746Z,184.65
2019-04-07T22:43:17.894Z,188.62
2019-04-07T22:45:55.749Z,179.67
2019-04-07T22:48:18.429Z,177.70
2019-04-07T22:50:48.386Z,204.00
2019-04-07T22:53:22.562Z,188.15
2019-04-07T22:55:48.981Z,189.35
2019-04-07T22:58:18.474Z,194.57
2019-04-07T23:00:48.236Z,202.20
2019-04-07T23:03:17.750Z,212.23
2019-04-07T23:05:47.404Z,206.43
2019-04-07T23:08:16.944Z,236.55
2019-04-07T23:10:46.404Z,271.93
2019-04-07T23:13:16.619Z,313.37
2019-04-07T23:15:48.513Z,364.10
2019-04-07T23:18:18.459Z,388.48
2019-04-07T23:20:47.993Z,337.75
2019-04-07T23:23:17.608Z,320.63
2019-04-07T23:25:47.319Z,377.17
2019-04-07T23:28:16.782Z,360.55
2019-04-07T23:30:47.179Z,361.90
2019-04-07T23:33:16.824Z,347.23
2019-04-07T23:35:46.860Z,329.25
2019-04-07T23:38:16.682Z,321.37
2019-04-07T23:40:46.352Z,319.23
2019-04-07T23:43:15.832Z,331.57
2019-04-07T23:45:45.557Z,303.45
2019-04-07T23:48:15.853Z,322.17
2019-04-07T23:50:46.558Z,304.38
2019-04-07T23:53:52.582Z,312.30
2019-04-07T23:56:22.110Z,315.52
2019-04-07T23:58:52.046Z,312.48
